createdAt,value
2022-12-01T00:00:43.569Z,5.72
2022-12-01T00:03:46.258Z,5.72
2022-12-01T00:06:50.905Z,5.64
2022-12-01T00:10:11.174Z,5.59
2022-12-01T00:13:14.095Z,5.52
2022-12-01T00:16:18.024Z,5.57
2022-12-01T00:19:20.668Z,5.54
2022-12-01T00:22:25.147Z,5.65
2022-12-01T00:25:28.933Z,5.61
2022-12-01T00:28:31.773Z,5.61
2022-12-01T00:31:35.839Z,5.69
2022-12-01T00:34:39.339Z,5.68
2022-12-01T00:37:43.500Z,5.79
2022-12-01T00:40:46.346Z,5.80
2022-12-01T00:43:49.156Z,5.77
2022-12-01T00:46:51.918Z,5.76
2022-12-01T00:49:54.787Z,5.74
2022-12-01T00:52:59.181Z,5.78
2022-12-01T00:56:01.818Z,5.77
2022-12-01T00:59:04.811Z,5.79
2022-12-01T01:02:08.861Z,5.80
2022-12-01T01:05:11.687Z,5.81
2022-12-01T01:08:16.349Z,5.84
2022-12-01T01:11:22.006Z,5.82
2022-12-01T01:14:25.419Z,5.81
2022-12-01T01:17:28.474Z,5.84
2022-12-01T01:20:31.565Z,5.85
2022-12-01T01:23:35.988Z,5.84
2022-12-01T01:26:39.396Z,5.67
2022-12-01T01:29:42.495Z,5.75
2022-12-01T01:32:45.226Z,5.72
2022-12-01T01:35:47.993Z,5.64
2022-12-01T01:38:53.389Z,5.66
2022-12-01T01:41:56.034Z,5.68
2022-12-01T01:44:59.677Z,5.60
2022-12-01T01:48:03.708Z,5.62
2022-12-01T01:51:07.483Z,5.62
2022-12-01T01:54:15.773Z,5.70
2022-12-01T01:57:24.330Z,5.69
2022-12-01T02:00:27.388Z,5.67
2022-12-01T02:03:30.760Z,5.64
2022-12-01T02:06:33.778Z,5.62
2022-12-01T02:09:38.115Z,5.64
2022-12-01T02:12:50.529Z,5.61
2022-12-01T02:15:59.588Z,5.53
2022-12-01T02:19:16.747Z,5.54
2022-12-01T02:22:25.282Z,5.54
2022-12-01T02:25:38.050Z,5.59
2022-12-01T02:28:55.418Z,5.46
2022-12-01T02:32:02.967Z,5.42
2022-12-01T02:35:14.094Z,5.50
2022-12-01T02:38:23.906Z,5.49
2022-12-01T02:41:30.608Z,5.45
2022-12-01T02:44:35.698Z,5.46
2022-12-01T02:47:41.360Z,5.38
2022-12-01T02:50:44.872Z,5.26
2022-12-01T02:53:47.970Z,5.26
2022-12-01T02:56:53.138Z,5.31
2022-12-01T02:59:56.792Z,5.32
2022-12-01T03:03:27.244Z,5.23
2022-12-01T03:06:38.115Z,5.29
2022-12-01T03:09:48.637Z,5.23
2022-12-01T03:12:59.669Z,5.26
2022-12-01T03:16:07.401Z,5.30
2022-12-01T03:19:14.867Z,5.25
2022-12-01T03:22:24.913Z,5.21
2022-12-01T03:25:29.718Z,5.23
2022-12-01T03:28:34.755Z,5.23
2022-12-01T03:31:41.016Z,5.13
2022-12-01T03:34:50.071Z,5.19
2022-12-01T03:37:56.680Z,5.21
2022-12-01T03:41:02.242Z,5.25
2022-12-01T03:44:09.196Z,5.27
2022-12-01T03:47:14.418Z,5.26
2022-12-01T03:50:19.408Z,5.25
2022-12-01T03:53:26.081Z,5.14
2022-12-01T03:56:33.747Z,5.13
2022-12-01T03:59:37.523Z,5.14
2022-12-01T04:02:40.892Z,5.16
2022-12-01T04:05:45.053Z,5.14
2022-12-01T04:08:47.804Z,5.11
2022-12-01T04:12:08.543Z,5.13
2022-12-01T04:15:13.191Z,5.14
2022-12-01T04:18:15.962Z,5.18
2022-12-01T04:21:20.663Z,5.19
2022-12-01T04:24:23.296Z,5.21
2022-12-01T04:27:26.046Z,5.15
2022-12-01T04:30:28.905Z,5.13
2022-12-01T04:33:31.533Z,5.18
2022-12-01T04:36:35.981Z,5.19
2022-12-01T04:39:39.242Z,5.22
2022-12-01T04:42:41.825Z,5.21
2022-12-01T04:45:44.670Z,5.19
2022-12-01T04:48:47.558Z,5.17
2022-12-01T04:51:51.969Z,5.22
2022-12-01T04:54:54.853Z,5.27
2022-12-01T04:57:58.040Z,5.30
2022-12-01T05:01:03.004Z,5.17
2022-12-01T05:04:05.910Z,5.16
2022-12-01T05:07:10.388Z,5.18
2022-12-01T05:10:14.246Z,5.11
2022-12-01T05:13:17.360Z,5.18
2022-12-01T05:16:21.733Z,5.18
2022-12-01T05:19:43.821Z,5.16
2022-12-01T05:23:05.674Z,5.11
2022-12-01T05:26:10.130Z,5.16
2022-12-01T05:29:13.071Z,5.17
2022-12-01T05:32:15.676Z,5.10
2022-12-01T05:35:18.505Z,5.11
2022-12-01T05:38:22.703Z,5.14
2022-12-01T05:41:25.350Z,5.13
2022-12-01T05:44:28.102Z,5.14
2022-12-01T05:47:31.358Z,5.00
2022-12-01T05:50:34.179Z,4.96
2022-12-01T05:53:39.635Z,5.02
2022-12-01T05:56:42.592Z,5.11
2022-12-01T05:59:45.261Z,5.21
2022-12-01T06:02:48.268Z,5.18
2022-12-01T06:05:51.602Z,5.26
2022-12-01T06:08:55.782Z,5.20
2022-12-01T06:11:58.514Z,5.18
2022-12-01T06:15:01.243Z,5.14
2022-12-01T06:18:03.904Z,5.00
2022-12-01T06:21:07.681Z,5.08
2022-12-01T06:24:12.418Z,5.14
2022-12-01T06:27:15.142Z,5.14
2022-12-01T06:30:18.135Z,5.11
2022-12-01T06:33:20.891Z,5.17
2022-12-01T06:36:23.613Z,5.20
2022-12-01T06:39:27.746Z,5.10
2022-12-01T06:42:31.613Z,4.94
2022-12-01T06:45:34.220Z,5.06
2022-12-01T06:48:37.694Z,5.09
2022-12-01T06:51:40.998Z,5.03
2022-12-01T06:54:45.116Z,5.08
2022-12-01T06:57:48.950Z,5.09
2022-12-01T07:00:52.551Z,5.12
2022-12-01T07:03:55.853Z,5.15
2022-12-01T07:06:58.826Z,5.20
2022-12-01T07:10:02.970Z,5.15
2022-12-01T07:13:06.120Z,5.16
2022-12-01T07:16:10.520Z,5.07
2022-12-01T07:19:13.645Z,5.13
2022-12-01T07:22:17.046Z,5.16
2022-12-01T07:25:22.344Z,5.18
2022-12-01T07:28:25.776Z,5.05
2022-12-01T07:31:28.574Z,5.21
2022-12-01T07:34:31.758Z,5.26
2022-12-01T07:37:35.037Z,5.30
2022-12-01T07:40:39.200Z,5.27
2022-12-01T07:43:42.748Z,5.31
2022-12-01T07:46:46.038Z,5.30
2022-12-01T07:49:49.114Z,5.26
2022-12-01T07:52:52.748Z,5.28
2022-12-01T07:55:57.398Z,5.37
2022-12-01T07:59:00.148Z,5.34
2022-12-01T08:02:03.033Z,5.24
2022-12-01T08:05:06.755Z,5.13
2022-12-01T08:08:09.596Z,5.18
2022-12-01T08:11:15.695Z,5.36
2022-12-01T08:14:18.793Z,5.46
2022-12-01T08:17:22.668Z,5.49
2022-12-01T08:20:25.443Z,5.56
2022-12-01T08:23:28.530Z,5.62
2022-12-01T08:26:33.175Z,5.62
2022-12-01T08:29:36.572Z,5.61
2022-12-01T08:32:39.758Z,5.61
2022-12-01T08:35:42.530Z,5.45
2022-12-01T08:38:45.760Z,5.43
2022-12-01T08:41:50.203Z,5.49
2022-12-01T08:44:53.286Z,5.56
2022-12-01T08:47:58.835Z,5.44
2022-12-01T08:51:09.047Z,5.47
2022-12-01T08:54:12.702Z,5.54
2022-12-01T08:57:16.607Z,5.72
2022-12-01T09:00:19.259Z,5.62
2022-12-01T09:03:22.229Z,5.50
2022-12-01T09:06:25.064Z,5.59
2022-12-01T09:09:30.076Z,5.59
2022-12-01T09:12:34.650Z,5.49
2022-12-01T09:15:37.464Z,5.30
2022-12-01T09:18:41.476Z,5.54
2022-12-01T09:21:45.294Z,5.32
2022-12-01T09:24:47.783Z,5.36
2022-12-01T09:27:51.760Z,5.55
2022-12-01T09:30:54.485Z,5.71
2022-12-01T09:33:57.729Z,5.78
2022-12-01T09:37:00.394Z,5.80
2022-12-01T09:40:03.249Z,5.60
2022-12-01T09:43:13.425Z,5.71
2022-12-01T09:46:21.432Z,5.81
2022-12-01T09:49:26.940Z,5.76
2022-12-01T09:52:33.458Z,5.81
2022-12-01T09:55:36.764Z,5.84
2022-12-01T09:58:41.057Z,5.78
2022-12-01T10:01:45.437Z,5.76
2022-12-01T10:04:49.750Z,5.76
2022-12-01T10:07:56.421Z,5.91
2022-12-01T10:11:03.049Z,5.93
2022-12-01T10:14:12.067Z,6.11
2022-12-01T10:17:26.077Z,6.00
2022-12-01T10:20:35.125Z,6.03
2022-12-01T10:23:49.160Z,5.64
2022-12-01T10:26:56.868Z,5.62
2022-12-01T10:30:06.556Z,5.71
2022-12-01T10:33:18.167Z,5.71
2022-12-01T10:36:21.269Z,5.87
2022-12-01T10:39:29.524Z,5.82
2022-12-01T10:42:37.135Z,5.93
2022-12-01T10:45:45.649Z,6.19
2022-12-01T10:48:54.759Z,6.05
2022-12-01T10:51:58.697Z,5.99
2022-12-01T10:55:01.566Z,6.00
2022-12-01T10:58:09.415Z,5.65
2022-12-01T11:01:19.665Z,5.69
2022-12-01T11:04:30.551Z,5.82
2022-12-01T11:07:34.941Z,5.83
2022-12-01T11:10:39.187Z,6.06
2022-12-01T11:13:43.418Z,6.16
2022-12-01T11:16:50.048Z,6.28
2022-12-01T11:19:53.518Z,6.51
2022-12-01T11:23:25.656Z,6.29
2022-12-01T11:26:30.478Z,6.51
2022-12-01T11:29:36.622Z,6.45
2022-12-01T11:32:41.424Z,6.22
2022-12-01T11:35:49.078Z,6.24
2022-12-01T11:38:56.691Z,6.31
2022-12-01T11:42:02.306Z,6.29
2022-12-01T11:45:09.153Z,6.29
2022-12-01T11:48:25.660Z,6.14
2022-12-01T11:51:32.936Z,6.35
2022-12-01T11:54:35.533Z,6.45
2022-12-01T11:57:40.335Z,6.77
2022-12-01T12:00:48.171Z,6.69
2022-12-01T12:04:00.208Z,6.51
2022-12-01T12:07:10.889Z,6.23
2022-12-01T12:10:24.116Z,6.53
2022-12-01T12:13:54.829Z,6.39
2022-12-01T12:17:14.634Z,6.79
2022-12-01T12:20:41.395Z,6.98
2022-12-01T12:23:58.416Z,7.11
2022-12-01T12:27:08.443Z,6.90
2022-12-01T12:30:22.135Z,6.71
2022-12-01T12:33:53.769Z,6.28
2022-12-01T12:37:06.264Z,6.71
2022-12-01T12:40:32.725Z,7.12
2022-12-01T12:43:42.918Z,7.06
2022-12-01T12:46:53.718Z,7.30
2022-12-01T12:50:02.517Z,7.57
2022-12-01T12:53:13.591Z,7.30
2022-12-01T12:56:18.864Z,7.28
2022-12-01T12:59:24.403Z,7.38
2022-12-01T13:02:30.920Z,7.34
2022-12-01T13:05:37.753Z,6.66
2022-12-01T13:08:45.904Z,6.68
2022-12-01T13:11:51.418Z,6.97
2022-12-01T13:15:01.017Z,6.63
2022-12-01T13:18:13.542Z,6.73
2022-12-01T13:21:18.616Z,6.71
2022-12-01T13:24:24.992Z,6.48
2022-12-01T13:27:30.290Z,6.56
2022-12-01T13:30:33.001Z,6.65
2022-12-01T13:33:36.307Z,6.51
2022-12-01T13:36:49.561Z,6.34
2022-12-01T13:39:55.282Z,6.23
2022-12-01T13:43:04.243Z,6.23
2022-12-01T13:46:22.289Z,6.30
2022-12-01T13:49:42.158Z,6.50
2022-12-01T13:52:50.196Z,6.74
2022-12-01T13:56:06.051Z,6.64
2022-12-01T13:59:39.730Z,6.33
2022-12-01T14:02:42.886Z,6.42
2022-12-01T14:05:46.841Z,6.50
2022-12-01T14:08:49.522Z,6.52
2022-12-01T14:11:58.525Z,6.58
2022-12-01T14:15:03.533Z,6.60
2022-12-01T14:18:08.980Z,6.53
2022-12-01T14:21:14.117Z,6.53
2022-12-01T14:24:23.785Z,6.48
2022-12-01T14:27:36.940Z,6.38
2022-12-01T14:31:05.187Z,6.51
2022-12-01T14:34:15.730Z,6.21
2022-12-01T14:37:25.374Z,6.02
2022-12-01T14:40:31.686Z,5.99
2022-12-01T14:43:53.709Z,6.11
2022-12-01T14:47:01.714Z,6.30
2022-12-01T14:50:12.104Z,6.36
2022-12-01T14:53:25.445Z,6.14
2022-12-01T14:56:29.563Z,6.24
2022-12-01T14:59:33.888Z,6.35
2022-12-01T15:02:41.942Z,6.29
2022-12-01T15:05:45.285Z,6.18
2022-12-01T15:09:17.726Z,6.20
2022-12-01T15:12:28.128Z,6.15
2022-12-01T15:15:32.882Z,6.17
2022-12-01T15:18:38.065Z,6.21
2022-12-01T15:21:41.087Z,6.15
2022-12-01T15:24:45.893Z,6.15
2022-12-01T15:28:02.945Z,6.14
2022-12-01T15:31:12.052Z,6.18
2022-12-01T15:34:17.613Z,6.28
2022-12-01T15:37:23.236Z,6.37
2022-12-01T15:43:57.542Z,6.46
2022-12-01T15:47:01.896Z,6.45
2022-12-01T15:50:07.310Z,6.41
2022-12-01T15:53:33.027Z,6.43
2022-12-01T15:56:37.116Z,6.42
2022-12-01T15:59:41.332Z,6.50
2022-12-01T16:02:45.909Z,6.53
2022-12-01T16:05:49.827Z,6.57
2022-12-01T16:08:57.688Z,6.54
2022-12-01T16:12:17.816Z,6.60
2022-12-01T16:15:22.825Z,6.55
2022-12-01T16:18:29.697Z,6.34
2022-12-01T16:21:34.804Z,6.29
2022-12-01T16:24:43.839Z,6.22
2022-12-01T16:27:53.531Z,6.11
2022-12-01T16:30:56.556Z,5.96
2022-12-01T16:34:18.545Z,5.89
2022-12-01T16:37:28.057Z,5.97
2022-12-01T16:40:31.142Z,6.01
2022-12-01T16:43:33.774Z,6.10
2022-12-01T16:46:36.910Z,6.16
2022-12-01T16:49:41.237Z,6.26
2022-12-01T16:52:45.403Z,6.27
2022-12-01T16:55:50.660Z,6.31
2022-12-01T16:58:53.752Z,6.35
2022-12-01T17:01:57.310Z,6.14
2022-12-01T17:05:01.600Z,6.16
2022-12-01T17:08:04.712Z,6.17
2022-12-01T17:11:07.965Z,6.20
2022-12-01T17:14:10.985Z,6.16
2022-12-01T17:17:13.663Z,6.11
2022-12-01T17:20:17.865Z,5.94
2022-12-01T17:23:20.699Z,5.88
2022-12-01T17:26:24.796Z,6.08
2022-12-01T17:29:28.475Z,5.88
2022-12-01T17:32:31.119Z,5.84
2022-12-01T17:35:35.948Z,5.97
2022-12-01T17:38:39.744Z,6.13
2022-12-01T17:41:42.257Z,6.26
2022-12-01T17:44:45.078Z,6.07
2022-12-01T17:47:47.966Z,6.20
2022-12-01T17:50:52.123Z,6.10
2022-12-01T17:53:55.681Z,6.28
2022-12-01T17:56:58.493Z,6.25
2022-12-01T18:00:01.651Z,6.29
2022-12-01T18:03:04.859Z,6.33
2022-12-01T18:06:09.671Z,6.25
2022-12-01T18:09:12.621Z,6.16
2022-12-01T18:12:15.474Z,6.03
2022-12-01T18:15:18.761Z,6.14
2022-12-01T18:18:21.562Z,5.85
2022-12-01T18:21:26.510Z,5.99
2022-12-01T18:24:29.628Z,5.89
2022-12-01T18:27:32.659Z,5.76
2022-12-01T18:30:35.512Z,5.93
2022-12-01T18:33:41.755Z,5.67
2022-12-01T18:36:47.124Z,5.83
2022-12-01T18:39:50.613Z,6.05
2022-12-01T18:42:53.443Z,6.18
2022-12-01T18:45:56.790Z,6.17
2022-12-01T18:49:02.274Z,6.17
2022-12-01T18:52:06.917Z,6.16
2022-12-01T18:55:10.746Z,6.13
2022-12-01T18:58:13.547Z,6.05
2022-12-01T19:01:21.358Z,6.11
2022-12-01T19:04:24.690Z,6.24
2022-12-01T19:07:30.149Z,6.26
2022-12-01T19:10:33.398Z,6.19
2022-12-01T19:13:36.886Z,6.19
2022-12-01T19:16:41.004Z,6.01
2022-12-01T19:19:43.851Z,6.11
2022-12-01T19:22:48.351Z,6.21
2022-12-01T19:25:51.195Z,6.16
2022-12-01T19:28:54.192Z,6.23
2022-12-01T19:31:57.206Z,6.04
2022-12-01T19:35:00.367Z,5.91
2022-12-01T19:38:04.654Z,6.05
2022-12-01T19:41:08.433Z,6.05
2022-12-01T19:44:11.399Z,5.74
2022-12-01T19:47:17.800Z,5.98
2022-12-01T19:50:25.121Z,6.06
2022-12-01T19:53:33.506Z,6.01
2022-12-01T19:56:36.636Z,6.13
2022-12-01T19:59:39.323Z,6.17
2022-12-01T20:02:41.962Z,6.10
2022-12-01T20:05:44.720Z,6.14
2022-12-01T20:08:49.229Z,6.22
2022-12-01T20:11:52.101Z,6.17
2022-12-01T20:14:55.528Z,6.20
2022-12-01T20:17:58.310Z,6.27
2022-12-01T20:21:09.200Z,6.34
2022-12-01T20:24:14.890Z,6.38
2022-12-01T20:27:17.907Z,6.38
2022-12-01T20:30:21.012Z,6.28
2022-12-01T20:33:23.985Z,6.35
2022-12-01T20:36:27.671Z,6.21
2022-12-01T20:39:34.681Z,6.29
2022-12-01T20:42:39.584Z,6.18
2022-12-01T20:45:42.561Z,6.17
2022-12-01T20:48:45.539Z,6.22
2022-12-01T20:51:48.427Z,6.17
2022-12-01T20:54:52.839Z,6.16
2022-12-01T20:57:55.589Z,6.20
2022-12-01T21:00:58.655Z,5.94
2022-12-01T21:04:01.710Z,6.15
2022-12-01T21:07:04.736Z,6.21
2022-12-01T21:10:09.711Z,6.28
2022-12-01T21:13:36.748Z,6.21
2022-12-01T21:16:40.361Z,6.17
2022-12-01T21:19:47.245Z,6.21
2022-12-01T21:22:51.364Z,6.25
2022-12-01T21:25:56.348Z,6.30
2022-12-01T21:29:00.572Z,6.34
2022-12-01T21:32:11.595Z,6.30
2022-12-01T21:35:19.826Z,6.29
2022-12-01T21:38:22.726Z,6.41
2022-12-01T21:41:27.969Z,6.26
2022-12-01T21:44:34.287Z,6.25
2022-12-01T21:47:37.275Z,6.08
2022-12-01T21:50:40.473Z,6.23
2022-12-01T21:53:43.392Z,6.17
2022-12-01T21:56:49.182Z,6.26
2022-12-01T21:59:52.827Z,6.18
2022-12-01T22:03:05.371Z,6.21
2022-12-01T22:06:32.217Z,6.26
2022-12-01T22:09:35.984Z,6.33
2022-12-01T22:12:40.074Z,6.33
2022-12-01T22:15:42.945Z,6.26
2022-12-01T22:18:47.834Z,6.30
2022-12-01T22:21:51.787Z,6.36
2022-12-01T22:24:58.818Z,6.34
2022-12-01T22:28:04.307Z,6.40
2022-12-01T22:31:13.562Z,6.39
2022-12-01T22:34:17.507Z,6.43
2022-12-01T22:37:21.991Z,6.34
2022-12-01T22:40:41.647Z,6.42
2022-12-01T22:43:48.049Z,6.42
2022-12-01T22:46:51.567Z,6.39
2022-12-01T22:49:55.450Z,6.36
2022-12-01T22:53:01.753Z,6.34
2022-12-01T22:56:17.365Z,6.38
2022-12-01T22:59:24.223Z,6.16
2022-12-01T23:02:32.781Z,6.17
2022-12-01T23:05:35.464Z,6.23
2022-12-01T23:08:38.806Z,6.25
2022-12-01T23:11:43.423Z,6.20
2022-12-01T23:14:49.756Z,6.32
2022-12-01T23:17:52.838Z,6.27
2022-12-01T23:20:56.748Z,6.23
2022-12-01T23:23:59.369Z,6.26
2022-12-01T23:27:02.143Z,6.01
2022-12-01T23:30:07.271Z,6.22
2022-12-01T23:33:20.440Z,6.17
2022-12-01T23:36:24.882Z,6.12
2022-12-01T23:39:33.939Z,6.17
2022-12-01T23:42:36.568Z,6.17
2022-12-01T23:45:40.500Z,6.27
2022-12-01T23:48:45.456Z,6.25
2022-12-01T23:51:49.736Z,6.20
2022-12-01T23:54:52.712Z,6.15
2022-12-01T23:57:56.278Z,5.97
